Time;durP1;ratioP1;P1;durP2;ratioP2;P2;SDS_P1;SDS_P2;PMS_P1;PMS_P2;Temp;Humidity;BMP_temperature;BMP_pressure;BME280_temperature;BME280_humidity;BME280_pressure;Samples;Min_cycle;Max_cycle;Signal;HPM_P1;HPM_P2
2022/05/31 00:01:50;;;;;;;62.00;5.00;;;;;;;;;;5077838;28;20444;-80
2022/05/31 00:04:18;;;;;;;60.13;4.23;;;;;;;;;;5078771;28;20438;-80
2022/05/31 00:06:46;;;;;;;61.67;4.40;;;;;;;;;;5078556;28;20439;-80
2022/05/31 00:09:14;;;;;;;60.77;4.23;;;;;;;;;;5078646;28;20534;-81
2022/05/31 00:11:42;;;;;;;62.20;4.27;;;;;;;;;;5078282;28;20456;-80
2022/05/31 00:14:09;;;;;;;62.00;4.50;;;;;;;;;;5078610;28;20440;-80
2022/05/31 00:16:37;;;;;;;59.83;3.93;;;;;;;;;;5078316;28;20434;-81
2022/05/31 00:19:04;;;;;;;61.60;4.97;;;;;;;;;;5077795;28;20491;-80
2022/05/31 00:21:38;;;;;;;61.20;4.60;;;;;;;;;;5078601;28;20420;-81
2022/05/31 00:24:08;;;;;;;60.00;4.00;;;;;;;;;;5078423;28;20453;-80
2022/05/31 00:26:35;;;;;;;61.17;4.75;;;;;;;;;;5079804;28;20450;-81
2022/05/31 00:29:02;;;;;;;62.45;4.00;;;;;;;;;;5079588;28;20227;-81
2022/05/31 00:31:30;;;;;;;61.00;4.83;;;;;;;;;;5079902;28;20212;-81
2022/05/31 00:33:57;;;;;;;59.88;3.90;;;;;;;;;;5080174;28;20432;-81
2022/05/31 00:36:24;;;;;;;71.73;4.80;;;;;;;;;;5080454;28;20265;-81
2022/05/31 00:38:52;;;;;;;62.17;5.30;;;;;;;;;;5080711;28;20447;-81
2022/05/31 00:41:27;;;;;;;61.10;4.88;;;;;;;;;;5079832;28;20502;-81
2022/05/31 00:43:57;;;;;;;61.80;4.78;;;;;;;;;;5080259;28;20300;-81
2022/05/31 00:46:26;;;;;;;62.10;4.30;;;;;;;;;;5080823;28;20203;-81
2022/05/31 00:48:57;;;;;;;59.88;3.80;;;;;;;;;;5079665;28;20438;-81
2022/05/31 00:51:25;;;;;;;60.90;4.17;;;;;;;;;;5080643;28;20651;-81
2022/05/31 00:54:00;;;;;;;59.93;3.70;;;;;;;;;;5080306;28;20434;-81
2022/05/31 00:56:29;;;;;;;59.90;4.10;;;;;;;;;;5080030;28;20482;-81
2022/05/31 00:58:58;;;;;;;60.08;3.88;;;;;;;;;;5079692;28;20940;-81
2022/05/31 01:01:26;;;;;;;60.17;4.33;;;;;;;;;;5079753;28;20272;-81
2022/05/31 01:03:53;;;;;;;60.70;4.10;;;;;;;;;;5079659;28;20533;-81
2022/05/31 01:06:20;;;;;;;59.90;4.27;;;;;;;;;;5079738;28;20437;-81
2022/05/31 01:08:48;;;;;;;60.85;4.95;;;;;;;;;;5079270;28;20484;-81
2022/05/31 01:11:17;;;;;;;59.97;4.20;;;;;;;;;;5079112;28;20214;-82
2022/05/31 01:13:46;;;;;;;60.17;4.10;;;;;;;;;;5079796;28;20520;-81
2022/05/31 01:16:14;;;;;;;61.60;4.03;;;;;;;;;;5079014;28;20227;-81
2022/05/31 01:18:42;;;;;;;61.60;4.30;;;;;;;;;;5078808;28;20436;-81
2022/05/31 01:21:11;;;;;;;59.47;3.30;;;;;;;;;;5079292;28;20225;-81
2022/05/31 01:23:42;;;;;;;64.50;4.53;;;;;;;;;;5079682;28;20441;-81
2022/05/31 01:26:13;;;;;;;59.63;3.67;;;;;;;;;;5079268;28;20195;-81
2022/05/31 01:28:48;;;;;;;59.90;3.83;;;;;;;;;;5079461;28;20634;-81
2022/05/31 01:31:18;;;;;;;61.45;4.13;;;;;;;;;;5079470;28;20227;-81
2022/05/31 01:33:47;;;;;;;60.67;4.28;;;;;;;;;;5079752;28;20288;-81
2022/05/31 01:36:18;;;;;;;59.90;3.80;;;;;;;;;;5080158;28;20198;-81
2022/05/31 01:38:48;;;;;;;61.17;4.35;;;;;;;;;;5080267;28;20214;-81
2022/05/31 01:41:19;;;;;;;60.28;3.70;;;;;;;;;;5079550;28;20217;-81
2022/05/31 01:43:47;;;;;;;60.92;4.05;;;;;;;;;;5079076;28;20205;-81
2022/05/31 01:46:18;;;;;;;61.20;4.45;;;;;;;;;;5080265;28;20251;-81
2022/05/31 01:48:46;;;;;;;60.40;4.00;;;;;;;;;;5080613;28;20232;-81
2022/05/31 01:51:13;;;;;;;60.33;4.30;;;;;;;;;;5077616;28;20248;-81
2022/05/31 01:53:42;;;;;;;60.70;4.38;;;;;;;;;;5080799;28;20216;-82
2022/05/31 01:56:10;;;;;;;59.80;4.05;;;;;;;;;;5080754;28;20205;-81
2022/05/31 01:58:39;;;;;;;60.30;3.97;;;;;;;;;;5080028;28;20212;-81
2022/05/31 02:01:07;;;;;;;60.38;4.20;;;;;;;;;;5080412;28;20277;-81
2022/05/31 02:03:35;;;;;;;61.65;5.47;;;;;;;;;;5080371;28;20193;-82
2022/05/31 02:06:05;;;;;;;61.08;4.15;;;;;;;;;;5079625;28;20233;-81
2022/05/31 02:08:33;;;;;;;59.42;3.50;;;;;;;;;;5076607;28;20202;-81
2022/05/31 02:11:02;;;;;;;60.60;4.13;;;;;;;;;;5071134;28;20221;-81
2022/05/31 02:13:29;;;;;;;60.17;4.00;;;;;;;;;;5071814;28;20255;-81
2022/05/31 02:15:56;;;;;;;61.92;4.13;;;;;;;;;;5072202;28;20209;-81
2022/05/31 02:19:15;;;;;;;61.78;4.45;;;;;;;;;;5072226;28;20288;-81
2022/05/31 02:21:12;;;;;;;60.03;3.85;;;;;;;;;;5076223;28;20226;-80
2022/05/31 02:23:39;;;;;;;60.53;3.95;;;;;;;;;;5094669;28;20182;-81
2022/05/31 02:26:08;;;;;;;60.40;4.53;;;;;;;;;;5096046;28;20205;-80
2022/05/31 02:28:35;;;;;;;61.78;4.70;;;;;;;;;;5096254;28;20201;-80
2022/05/31 02:31:03;;;;;;;60.75;4.10;;;;;;;;;;5096202;28;20221;-81
2022/05/31 02:33:30;;;;;;;61.95;4.50;;;;;;;;;;5077720;28;20214;-80
2022/05/31 02:35:57;;;;;;;61.75;5.40;;;;;;;;;;5075903;28;20210;-81
2022/05/31 02:38:24;;;;;;;62.10;4.38;;;;;;;;;;5075304;28;20211;-81
2022/05/31 02:40:52;;;;;;;60.45;4.47;;;;;;;;;;5075508;28;20222;-80
2022/05/31 02:43:20;;;;;;;70.03;4.65;;;;;;;;;;5075982;28;20211;-80
2022/05/31 02:45:48;;;;;;;61.20;4.50;;;;;;;;;;5076005;28;20573;-81
2022/05/31 02:48:15;;;;;;;60.77;4.37;;;;;;;;;;5075637;28;20205;-81
2022/05/31 02:50:43;;;;;;;63.25;4.72;;;;;;;;;;5076081;28;20530;-81
2022/05/31 02:53:10;;;;;;;59.90;3.85;;;;;;;;;;5076719;28;20256;-80
2022/05/31 02:55:37;;;;;;;61.35;4.93;;;;;;;;;;5077090;28;20206;-81
2022/05/31 02:58:05;;;;;;;59.83;3.80;;;;;;;;;;5076200;28;20197;-81
2022/05/31 03:00:33;;;;;;;61.63;4.35;;;;;;;;;;5076925;28;20280;-81
2022/05/31 03:03:01;;;;;;;60.95;4.18;;;;;;;;;;5076726;28;20205;-80
2022/05/31 03:05:28;;;;;;;61.65;5.25;;;;;;;;;;5076868;28;20241;-81
2022/05/31 03:07:55;;;;;;;61.25;3.72;;;;;;;;;;5076685;28;20204;-80
2022/05/31 03:10:23;;;;;;;60.33;4.17;;;;;;;;;;5077249;28;20221;-80
2022/05/31 03:12:51;;;;;;;60.65;4.22;;;;;;;;;;5077461;28;20444;-81
2022/05/31 03:15:20;;;;;;;60.67;4.30;;;;;;;;;;5076756;28;20199;-81
2022/05/31 03:17:51;;;;;;;63.92;4.53;;;;;;;;;;5076990;28;20267;-81
2022/05/31 03:20:22;;;;;;;60.35;4.15;;;;;;;;;;5077432;28;20239;-81
2022/05/31 03:22:50;;;;;;;60.97;3.97;;;;;;;;;;5077889;28;20352;-81
2022/05/31 03:25:19;;;;;;;59.58;3.70;;;;;;;;;;5077010;28;20198;-81
2022/05/31 03:27:47;;;;;;;60.22;4.55;;;;;;;;;;5077630;28;20224;-81
2022/05/31 03:30:15;;;;;;;60.70;4.70;;;;;;;;;;5077520;28;20702;-81
2022/05/31 03:32:43;;;;;;;62.05;4.50;;;;;;;;;;5077220;28;20451;-81
2022/05/31 03:35:12;;;;;;;65.45;5.55;;;;;;;;;;5076929;28;20253;-81
2022/05/31 03:37:40;;;;;;;63.00;5.60;;;;;;;;;;5084359;28;20264;-81
2022/05/31 03:40:08;;;;;;;60.78;4.50;;;;;;;;;;5086235;28;20213;-80
2022/05/31 03:42:36;;;;;;;62.83;4.82;;;;;;;;;;5085135;28;20206;-81
2022/05/31 03:45:03;;;;;;;61.70;4.70;;;;;;;;;;5078233;28;20202;-81
2022/05/31 03:47:30;;;;;;;61.47;4.57;;;;;;;;;;5079445;28;20249;-81
2022/05/31 03:49:57;;;;;;;61.17;4.72;;;;;;;;;;5078617;28;21371;-81
2022/05/31 03:52:26;;;;;;;60.67;4.53;;;;;;;;;;5077960;28;20238;-81
2022/05/31 03:54:53;;;;;;;59.75;4.15;;;;;;;;;;5078190;28;20202;-81
2022/05/31 03:57:22;;;;;;;62.05;4.60;;;;;;;;;;5078559;28;20202;-81
2022/05/31 03:59:49;;;;;;;61.33;5.23;;;;;;;;;;5078515;28;20218;-81
2022/05/31 04:02:16;;;;;;;60.50;4.40;;;;;;;;;;5078107;28;20812;-81
2022/05/31 04:04:43;;;;;;;62.38;4.55;;;;;;;;;;5078910;28;20257;-81
2022/05/31 04:07:11;;;;;;;62.70;4.60;;;;;;;;;;5078581;28;20552;-81
2022/05/31 04:09:39;;;;;;;59.65;3.95;;;;;;;;;;5078588;28;20460;-81
2022/05/31 04:12:07;;;;;;;60.65;4.22;;;;;;;;;;5078782;28;20624;-81
2022/05/31 04:14:37;;;;;;;60.58;4.05;;;;;;;;;;5078701;28;20203;-81
2022/05/31 04:17:05;;;;;;;62.07;5.20;;;;;;;;;;5078088;28;20311;-81
2022/05/31 04:19:32;;;;;;;61.87;4.43;;;;;;;;;;5078460;28;20488;-81
2022/05/31 04:22:00;;;;;;;59.53;3.93;;;;;;;;;;5078840;28;20945;-81
2022/05/31 04:24:27;;;;;;;60.22;4.55;;;;;;;;;;5077449;28;20431;-81
2022/05/31 04:26:56;;;;;;;60.20;4.60;;;;;;;;;;5078207;28;20206;-80
2022/05/31 04:29:23;;;;;;;62.28;3.92;;;;;;;;;;5077870;28;20531;-81
2022/05/31 04:31:50;;;;;;;60.05;3.85;;;;;;;;;;5078373;28;20221;-81
2022/05/31 04:34:17;;;;;;;61.63;4.47;;;;;;;;;;5078286;28;20205;-80
2022/05/31 04:36:45;;;;;;;61.17;4.40;;;;;;;;;;5078170;28;20246;-81
2022/05/31 04:39:12;;;;;;;61.50;5.50;;;;;;;;;;5078213;28;20761;-81
2022/05/31 04:41:39;;;;;;;60.97;4.47;;;;;;;;;;5078548;28;20201;-81
2022/05/31 04:44:08;;;;;;;60.30;4.50;;;;;;;;;;5078043;28;20518;-82
2022/05/31 04:46:37;;;;;;;62.00;4.70;;;;;;;;;;5059829;28;20486;-81
2022/05/31 04:49:05;;;;;;;62.20;4.10;;;;;;;;;;5077079;28;20221;-81
2022/05/31 04:51:34;;;;;;;59.97;3.87;;;;;;;;;;5077391;28;20487;-81
2022/05/31 04:54:01;;;;;;;60.17;4.73;;;;;;;;;;5078177;28;20454;-81
2022/05/31 04:56:29;;;;;;;60.60;3.92;;;;;;;;;;5078153;28;20444;-81
2022/05/31 04:58:56;;;;;;;61.80;4.53;;;;;;;;;;5077693;28;20207;-80
2022/05/31 05:01:25;;;;;;;64.13;4.10;;;;;;;;;;5078202;28;20435;-81
2022/05/31 05:03:53;;;;;;;61.28;3.63;;;;;;;;;;5077605;28;20437;-81
2022/05/31 05:06:20;;;;;;;65.47;4.03;;;;;;;;;;5078243;28;20206;-81
2022/05/31 05:08:48;;;;;;;59.60;3.70;;;;;;;;;;5078081;28;20434;-81
2022/05/31 05:11:17;;;;;;;60.07;4.13;;;;;;;;;;5077935;28;20480;-81
2022/05/31 05:13:44;;;;;;;62.87;4.30;;;;;;;;;;5078334;28;20468;-80
2022/05/31 05:16:12;;;;;;;61.10;4.23;;;;;;;;;;5078188;28;20827;-81
2022/05/31 05:18:41;;;;;;;59.90;4.00;;;;;;;;;;5077416;28;20497;-81
2022/05/31 05:21:10;;;;;;;61.87;4.47;;;;;;;;;;5078315;28;20469;-81
2022/05/31 05:23:38;;;;;;;59.87;3.60;;;;;;;;;;5077683;28;20495;-81
2022/05/31 05:26:05;;;;;;;59.60;3.83;;;;;;;;;;5077311;28;20434;-80
2022/05/31 05:31:22;;;;;;;60.10;4.43;;;;;;;;;;5077168;28;20552;-80
2022/05/31 05:33:50;;;;;;;59.70;3.90;;;;;;;;;;5078305;28;20495;-81
2022/05/31 05:36:18;;;;;;;59.67;4.10;;;;;;;;;;5077283;28;20870;-81
2022/05/31 05:38:45;;;;;;;59.87;4.30;;;;;;;;;;5076746;28;20492;-81
2022/05/31 05:41:13;;;;;;;61.53;5.00;;;;;;;;;;5076982;28;21032;-81
2022/05/31 05:43:40;;;;;;;59.40;3.83;;;;;;;;;;5077394;28;20465;-81
2022/05/31 05:46:12;;;;;;;59.77;4.40;;;;;;;;;;5077206;28;20476;-81
2022/05/31 05:48:40;;;;;;;60.27;4.27;;;;;;;;;;5077039;28;20434;-81
2022/05/31 05:51:13;;;;;;;59.70;3.70;;;;;;;;;;5077322;28;20485;-81
2022/05/31 05:53:41;;;;;;;60.67;4.40;;;;;;;;;;5078276;28;20450;-83
2022/05/31 05:56:08;;;;;;;59.90;3.70;;;;;;;;;;5077298;28;20532;-81
2022/05/31 05:58:35;;;;;;;60.30;4.30;;;;;;;;;;5077180;28;20450;-80
2022/05/31 06:01:03;;;;;;;60.90;4.10;;;;;;;;;;5079506;28;21053;-80
2022/05/31 06:03:33;;;;;;;59.70;4.23;;;;;;;;;;5080992;28;20442;-79
2022/05/31 06:06:01;;;;;;;60.20;4.63;;;;;;;;;;5081232;28;20510;-79
2022/05/31 06:08:32;;;;;;;59.57;3.70;;;;;;;;;;5080027;28;20435;-79
2022/05/31 06:11:03;;;;;;;60.43;4.37;;;;;;;;;;5079692;28;20478;-79
2022/05/31 06:13:33;;;;;;;61.47;4.80;;;;;;;;;;5079648;28;20459;-79
2022/05/31 06:16:00;;;;;;;60.67;4.00;;;;;;;;;;5080347;28;20439;-79
2022/05/31 06:18:29;;;;;;;60.43;4.77;;;;;;;;;;5079306;28;20962;-79
2022/05/31 06:20:57;;;;;;;59.40;3.80;;;;;;;;;;5079940;28;20463;-80
2022/05/31 06:23:24;;;;;;;62.07;3.93;;;;;;;;;;5080605;28;20431;-80
2022/05/31 06:25:53;;;;;;;61.37;4.67;;;;;;;;;;5080777;28;20435;-80
2022/05/31 06:28:21;;;;;;;59.50;3.90;;;;;;;;;;5080575;28;20447;-80
2022/05/31 06:30:48;;;;;;;60.30;4.53;;;;;;;;;;5080410;28;20937;-80
2022/05/31 06:33:15;;;;;;;59.37;4.20;;;;;;;;;;5081240;28;20455;-80
2022/05/31 06:35:42;;;;;;;59.50;3.53;;;;;;;;;;5081165;28;20431;-80
2022/05/31 06:38:10;;;;;;;59.50;3.37;;;;;;;;;;5080284;28;20458;-80
2022/05/31 06:40:41;;;;;;;61.83;4.03;;;;;;;;;;5080692;28;20480;-81
2022/05/31 06:43:09;;;;;;;59.87;3.97;;;;;;;;;;5080692;28;20855;-81
2022/05/31 06:45:37;;;;;;;65.43;3.90;;;;;;;;;;5080737;28;20444;-81
2022/05/31 06:48:04;;;;;;;60.10;4.00;;;;;;;;;;5080828;28;20435;-80
2022/05/31 06:50:32;;;;;;;59.40;3.70;;;;;;;;;;5081279;28;20901;-80
2022/05/31 06:58:30;;;;;;;61.30;4.70;;;;;;;;;;5080206;28;20424;-79
2022/05/31 07:00:57;;;;;;;59.07;3.80;;;;;;;;;;5080775;28;20457;-79
2022/05/31 07:03:24;;;;;;;59.23;3.50;;;;;;;;;;5079450;28;20451;-80
2022/05/31 07:05:57;;;;;;;59.53;3.90;;;;;;;;;;5080550;28;20436;-79
2022/05/31 07:08:24;;;;;;;61.40;4.53;;;;;;;;;;5076898;28;20873;-80
2022/05/31 07:10:51;;;;;;;60.27;4.30;;;;;;;;;;5073548;28;20481;-79
2022/05/31 07:13:20;;;;;;;60.47;4.60;;;;;;;;;;5074470;28;20968;-80
2022/05/31 07:15:51;;;;;;;59.13;3.50;;;;;;;;;;5075348;28;20460;-80
2022/05/31 07:18:18;;;;;;;59.67;3.70;;;;;;;;;;5076046;28;20463;-80
2022/05/31 07:20:46;;;;;;;61.80;4.30;;;;;;;;;;5076482;28;20527;-80
2022/05/31 07:23:13;;;;;;;64.27;3.90;;;;;;;;;;5077019;28;20873;-80
2022/05/31 07:25:41;;;;;;;59.90;3.90;;;;;;;;;;5077048;28;20445;-79
2022/05/31 07:28:08;;;;;;;61.27;4.40;;;;;;;;;;5077665;28;20436;-80
2022/05/31 07:30:35;;;;;;;59.30;3.63;;;;;;;;;;5079112;28;20457;-79
2022/05/31 07:33:04;;;;;;;59.77;3.73;;;;;;;;;;5079001;28;20914;-79
2022/05/31 07:35:31;;;;;;;59.03;3.30;;;;;;;;;;5080161;28;20437;-79
2022/05/31 07:37:59;;;;;;;60.70;3.50;;;;;;;;;;5086564;28;20450;-79
2022/05/31 07:40:26;;;;;;;74.23;4.23;;;;;;;;;;5094653;28;20526;-79
2022/05/31 07:42:53;;;;;;;59.13;3.47;;;;;;;;;;5094417;28;20441;-79
2022/05/31 07:45:21;;;;;;;59.63;3.60;;;;;;;;;;5093286;28;20456;-80
2022/05/31 07:47:48;;;;;;;59.87;3.93;;;;;;;;;;5090945;28;20437;-80
2022/05/31 07:50:17;;;;;;;59.17;3.60;;;;;;;;;;5075392;28;20531;-80
2022/05/31 07:52:44;;;;;;;59.00;3.20;;;;;;;;;;5074039;28;20568;-79
2022/05/31 07:55:12;;;;;;;58.67;3.00;;;;;;;;;;5074681;28;20434;-80
2022/05/31 08:00:24;;;;;;;59.50;3.50;;;;;;;;;;5074378;28;20523;-79
2022/05/31 08:02:51;;;;;;;58.77;3.30;;;;;;;;;;5074879;28;20915;-80
2022/05/31 08:05:20;;;;;;;59.00;3.00;;;;;;;;;;5074758;28;21153;-80
2022/05/31 08:07:49;;;;;;;59.20;3.37;;;;;;;;;;5074441;28;20500;-80
2022/05/31 08:10:17;;;;;;;59.37;3.13;;;;;;;;;;5075348;28;20472;-80
2022/05/31 08:12:44;;;;;;;59.87;3.00;;;;;;;;;;5075234;28;20571;-80
2022/05/31 08:15:12;;;;;;;58.80;3.27;;;;;;;;;;5079264;28;20443;-80
2022/05/31 08:17:39;;;;;;;59.20;3.40;;;;;;;;;;5081911;28;20501;-80
2022/05/31 08:20:08;;;;;;;67.90;3.20;;;;;;;;;;5082647;28;20512;-80
2022/05/31 08:22:37;;;;;;;58.67;3.20;;;;;;;;;;5079983;28;20439;-80
2022/05/31 08:25:04;;;;;;;59.73;3.93;;;;;;;;;;5080078;28;20469;-81
2022/05/31 08:27:34;;;;;;;65.80;3.93;;;;;;;;;;5080001;28;20482;-80
2022/05/31 08:30:03;;;;;;;58.30;2.77;;;;;;;;;;5080027;28;20482;-80
2022/05/31 08:32:30;;;;;;;59.73;3.33;;;;;;;;;;5080009;28;21024;-80
2022/05/31 08:34:58;;;;;;;59.17;3.20;;;;;;;;;;5079760;28;21029;-80
2022/05/31 08:37:25;;;;;;;59.73;3.47;;;;;;;;;;5079391;28;20454;-80
2022/05/31 08:39:53;;;;;;;59.43;3.13;;;;;;;;;;5078918;28;20495;-80
2022/05/31 08:42:23;;;;;;;59.40;3.33;;;;;;;;;;5079310;28;20504;-80
2022/05/31 08:44:53;;;;;;;59.63;3.37;;;;;;;;;;5078707;28;20435;-80
2022/05/31 08:47:22;;;;;;;59.00;2.87;;;;;;;;;;5079909;28;20432;-80
2022/05/31 08:52:44;;;;;;;59.10;3.33;;;;;;;;;;5079397;28;20474;-80
2022/05/31 08:58:10;;;;;;;63.37;3.40;;;;;;;;;;5050958;28;20436;-80
2022/05/31 09:00:40;;;;;;;59.50;3.20;;;;;;;;;;5078798;28;20505;-80
2022/05/31 09:03:10;;;;;;;63.43;3.10;;;;;;;;;;5079838;28;20497;-80
2022/05/31 09:05:40;;;;;;;59.20;2.73;;;;;;;;;;5079407;28;20909;-80
2022/05/31 09:08:10;;;;;;;62.60;2.90;;;;;;;;;;5079290;28;20433;-80
2022/05/31 09:10:42;;;;;;;62.10;2.87;;;;;;;;;;5079172;28;20485;-81
2022/05/31 09:13:13;;;;;;;58.23;2.50;;;;;;;;;;5078496;28;20486;-81
2022/05/31 09:15:42;;;;;;;58.67;2.53;;;;;;;;;;5079284;28;20470;-80
2022/05/31 09:18:12;;;;;;;58.77;2.80;;;;;;;;;;5078071;28;20499;-81
2022/05/31 09:20:41;;;;;;;58.40;2.80;;;;;;;;;;5079069;28;21006;-81
2022/05/31 09:23:09;;;;;;;58.53;2.77;;;;;;;;;;5078773;28;20487;-81
2022/05/31 09:25:39;;;;;;;58.60;2.87;;;;;;;;;;5078875;28;20493;-81
2022/05/31 09:28:27;;;;;;;58.20;2.57;;;;;;;;;;5078875;28;20518;-81
2022/05/31 09:30:54;;;;;;;59.00;3.20;;;;;;;;;;5078125;28;20451;-81
2022/05/31 09:33:25;;;;;;;58.60;2.87;;;;;;;;;;5078658;28;21022;-81
2022/05/31 09:36:09;;;;;;;59.37;2.80;;;;;;;;;;5085009;28;20428;-81
2022/05/31 09:38:51;;;;;;;59.80;2.60;;;;;;;;;;5085667;28;20459;-80
2022/05/31 09:41:23;;;;;;;59.60;3.00;;;;;;;;;;5085596;28;20499;-81
2022/05/31 09:43:55;;;;;;;57.80;2.80;;;;;;;;;;5084862;28;20514;-81
2022/05/31 09:46:30;;;;;;;60.13;2.83;;;;;;;;;;5084711;28;20450;-81
2022/05/31 09:48:58;;;;;;;58.97;2.73;;;;;;;;;;5084602;28;20430;-81
2022/05/31 09:51:29;;;;;;;60.67;3.10;;;;;;;;;;5085565;28;20485;-81
2022/05/31 09:59:35;;;;;;;61.20;3.53;;;;;;;;;;5085417;28;20857;-81
2022/05/31 10:02:12;;;;;;;59.40;2.47;;;;;;;;;;5085878;28;20439;-81
2022/05/31 10:04:41;;;;;;;58.47;2.70;;;;;;;;;;5085184;28;20466;-81
2022/05/31 10:07:09;;;;;;;60.20;3.07;;;;;;;;;;5085026;28;20450;-81
2022/05/31 10:09:38;;;;;;;58.30;2.50;;;;;;;;;;5085079;28;20514;-82
2022/05/31 10:12:06;;;;;;;59.00;2.40;;;;;;;;;;5084845;28;20474;-81
2022/05/31 10:14:36;;;;;;;58.57;2.43;;;;;;;;;;5085010;28;20832;-80
2022/05/31 10:17:15;;;;;;;58.43;2.77;;;;;;;;;;5085216;28;20471;-81
2022/05/31 10:19:43;;;;;;;58.40;2.40;;;;;;;;;;5085164;28;20535;-81
2022/05/31 10:22:17;;;;;;;58.27;2.30;;;;;;;;;;5085278;28;20448;-80
2022/05/31 10:24:47;;;;;;;59.53;2.40;;;;;;;;;;5083958;28;20486;-79
2022/05/31 10:27:20;;;;;;;60.10;2.50;;;;;;;;;;5083269;28;20523;-80
2022/05/31 10:29:49;;;;;;;58.07;2.33;;;;;;;;;;5083688;28;20474;-79
2022/05/31 10:32:27;;;;;;;59.67;2.43;;;;;;;;;;5084395;28;21154;-80
2022/05/31 10:35:07;;;;;;;57.97;2.10;;;;;;;;;;5085256;28;20458;-80
2022/05/31 10:37:35;;;;;;;58.40;2.63;;;;;;;;;;5084844;28;20458;-81
2022/05/31 10:40:03;;;;;;;57.87;2.30;;;;;;;;;;5085203;28;20459;-80
2022/05/31 10:42:31;;;;;;;57.97;2.17;;;;;;;;;;5084306;28;20470;-80
2022/05/31 10:45:02;;;;;;;57.77;2.47;;;;;;;;;;5084413;28;20447;-81
2022/05/31 10:47:30;;;;;;;57.90;2.20;;;;;;;;;;5078668;28;20448;-81
2022/05/31 10:49:57;;;;;;;58.10;2.80;;;;;;;;;;5080103;28;20451;-81
2022/05/31 10:52:29;;;;;;;58.60;2.33;;;;;;;;;;5080277;28;20471;-81
2022/05/31 10:55:05;;;;;;;58.10;2.57;;;;;;;;;;5080601;28;20498;-80
2022/05/31 10:57:48;;;;;;;57.80;2.60;;;;;;;;;;5080495;28;20884;-81
2022/05/31 11:00:20;;;;;;;58.13;2.50;;;;;;;;;;5079270;28;20554;-82
2022/05/31 11:02:57;;;;;;;57.97;2.70;;;;;;;;;;5079298;28;20450;-81
2022/05/31 11:05:27;;;;;;;58.30;2.50;;;;;;;;;;5079576;28;20497;-81
2022/05/31 11:13:37;;;;;;;58.07;2.43;;;;;;;;;;5079475;28;20462;-81
2022/05/31 11:16:11;;;;;;;57.77;2.30;;;;;;;;;;5080499;28;20470;-80
2022/05/31 11:18:46;;;;;;;58.50;2.30;;;;;;;;;;5079422;28;20461;-80
2022/05/31 11:21:19;;;;;;;57.40;2.10;;;;;;;;;;5080823;28;20486;-80
2022/05/31 11:23:54;;;;;;;57.77;2.50;;;;;;;;;;5078614;28;20436;-79
2022/05/31 11:26:29;;;;;;;57.73;2.27;;;;;;;;;;5077846;28;20917;-79
2022/05/31 11:29:08;;;;;;;58.87;2.60;;;;;;;;;;5076583;28;20455;-79
2022/05/31 11:31:45;;;;;;;57.57;2.23;;;;;;;;;;5078355;28;20449;-80
2022/05/31 11:34:22;;;;;;;58.97;2.37;;;;;;;;;;5078138;28;20482;-79
2022/05/31 11:36:55;;;;;;;58.23;2.37;;;;;;;;;;5078846;28;20955;-79
2022/05/31 11:39:29;;;;;;;58.97;3.10;;;;;;;;;;5077228;28;20517;-79
2022/05/31 11:42:05;;;;;;;57.47;2.43;;;;;;;;;;5077950;28;20435;-80
2022/05/31 11:44:43;;;;;;;57.90;2.13;;;;;;;;;;5079016;28;20465;-80
2022/05/31 11:47:23;;;;;;;59.57;2.30;;;;;;;;;;5078960;28;20459;-80
2022/05/31 11:49:55;;;;;;;57.37;2.30;;;;;;;;;;5079969;28;20509;-80
2022/05/31 11:52:30;;;;;;;57.47;2.50;;;;;;;;;;5078293;28;20493;-80
2022/05/31 11:55:29;;;;;;;57.97;2.40;;;;;;;;;;5066375;28;20444;-80
2022/05/31 11:58:07;;;;;;;57.80;2.30;;;;;;;;;;5057420;28;20511;-80
2022/05/31 12:00:36;;;;;;;57.80;2.30;;;;;;;;;;5059388;28;20502;-80
2022/05/31 12:03:09;;;;;;;58.67;2.60;;;;;;;;;;5059168;28;20510;-80
2022/05/31 12:05:40;;;;;;;57.70;2.50;;;;;;;;;;5058233;28;20432;-80
2022/05/31 12:08:10;;;;;;;57.40;2.23;;;;;;;;;;5058165;28;20441;-82
2022/05/31 12:10:41;;;;;;;58.33;2.60;;;;;;;;;;5059063;28;20480;-78
2022/05/31 12:13:10;;;;;;;57.50;2.40;;;;;;;;;;5052903;28;20429;-81
2022/05/31 12:15:40;;;;;;;58.00;2.30;;;;;;;;;;5053199;28;20874;-81
2022/05/31 12:18:18;;;;;;;58.10;2.40;;;;;;;;;;5052842;28;21135;-82
2022/05/31 12:20:46;;;;;;;58.40;2.20;;;;;;;;;;5053190;28;20464;-81
2022/05/31 12:23:16;;;;;;;57.47;2.27;;;;;;;;;;5053312;28;20918;-81
2022/05/31 12:25:45;;;;;;;61.83;3.00;;;;;;;;;;5053121;28;20437;-81
2022/05/31 12:28:14;;;;;;;57.63;2.20;;;;;;;;;;5053122;28;20429;-81
2022/05/31 12:30:47;;;;;;;57.60;2.43;;;;;;;;;;5054726;28;20530;-83
2022/05/31 12:33:31;;;;;;;64.53;3.20;;;;;;;;;;5055588;28;20428;-83
2022/05/31 12:35:59;;;;;;;58.10;2.40;;;;;;;;;;5058008;28;20518;-81
2022/05/31 12:38:26;;;;;;;58.67;2.30;;;;;;;;;;5057431;28;20468;-82
2022/05/31 12:40:54;;;;;;;62.97;3.20;;;;;;;;;;5056644;28;20485;-82
2022/05/31 12:43:40;;;;;;;57.97;2.20;;;;;;;;;;5056577;28;20476;-81
2022/05/31 12:46:21;;;;;;;58.77;2.20;;;;;;;;;;5053710;28;20440;-82
2022/05/31 12:48:53;;;;;;;59.23;2.60;;;;;;;;;;5053590;28;20432;-81
2022/05/31 12:51:24;;;;;;;59.07;2.47;;;;;;;;;;5053877;28;20432;-81
2022/05/31 12:54:15;;;;;;;57.50;2.10;;;;;;;;;;5054432;28;20433;-82
2022/05/31 12:56:57;;;;;;;57.17;2.00;;;;;;;;;;5066438;28;20469;-84
2022/05/31 12:59:43;;;;;;;57.57;2.20;;;;;;;;;;5057971;28;20421;-81
2022/05/31 13:02:20;;;;;;;62.30;2.47;;;;;;;;;;5056402;28;20440;-81
2022/05/31 13:04:55;;;;;;;58.60;2.43;;;;;;;;;;5053603;28;20453;-81
2022/05/31 13:07:23;;;;;;;58.37;2.20;;;;;;;;;;5052896;28;20428;-82
2022/05/31 13:09:50;;;;;;;57.30;2.10;;;;;;;;;;5052248;28;20476;-82
2022/05/31 13:21:11;;;;;;;57.70;2.30;;;;;;;;;;4971669;28;20479;-83
2022/05/31 13:23:41;;;;;;;58.87;2.80;;;;;;;;;;5019014;28;20561;-82
2022/05/31 13:26:11;;;;;;;57.70;2.30;;;;;;;;;;5052430;28;20448;-82
2022/05/31 13:28:41;;;;;;;58.63;2.20;;;;;;;;;;5052503;28;20490;-81
2022/05/31 13:31:12;;;;;;;58.40;2.33;;;;;;;;;;5052621;28;20469;-81
2022/05/31 13:33:40;;;;;;;58.13;2.30;;;;;;;;;;5052201;28;20454;-80
2022/05/31 13:36:12;;;;;;;58.17;2.30;;;;;;;;;;5051846;28;20495;-81
2022/05/31 13:38:43;;;;;;;58.30;2.47;;;;;;;;;;5050938;28;20490;-82
2022/05/31 13:41:12;;;;;;;58.57;2.50;;;;;;;;;;5051545;28;20467;-81
2022/05/31 13:43:42;;;;;;;61.90;2.37;;;;;;;;;;5052067;28;21056;-83
2022/05/31 13:46:16;;;;;;;57.93;2.00;;;;;;;;;;5044560;28;20632;-81
2022/05/31 13:48:48;;;;;;;58.00;2.30;;;;;;;;;;5051782;28;20531;-81
2022/05/31 13:51:22;;;;;;;58.40;2.30;;;;;;;;;;5052570;28;20460;-83
2022/05/31 13:53:49;;;;;;;59.33;2.30;;;;;;;;;;5052287;28;20433;-84
2022/05/31 13:56:17;;;;;;;58.47;2.23;;;;;;;;;;5052288;28;20937;-83
2022/05/31 13:58:45;;;;;;;57.67;2.10;;;;;;;;;;5052507;28;20491;-83
2022/05/31 14:01:22;;;;;;;58.40;2.10;;;;;;;;;;5053526;28;20588;-81
2022/05/31 14:03:50;;;;;;;58.60;2.30;;;;;;;;;;5053786;28;20995;-81
2022/05/31 14:06:19;;;;;;;58.00;2.17;;;;;;;;;;5053627;28;20443;-81
2022/05/31 14:08:51;;;;;;;57.77;2.07;;;;;;;;;;5053456;28;20484;-81
2022/05/31 14:11:19;;;;;;;59.50;2.17;;;;;;;;;;5052690;28;20475;-83
2022/05/31 14:13:48;;;;;;;58.80;2.30;;;;;;;;;;5053263;28;20967;-84
2022/05/31 14:16:17;;;;;;;57.77;2.20;;;;;;;;;;5052501;28;20440;-83
2022/05/31 14:18:46;;;;;;;59.60;2.20;;;;;;;;;;5052530;28;20433;-82
2022/05/31 14:21:13;;;;;;;58.30;2.37;;;;;;;;;;5054213;28;20523;-84
2022/05/31 14:23:41;;;;;;;57.70;2.20;;;;;;;;;;5056262;28;20486;-83
2022/05/31 14:26:10;;;;;;;58.70;2.23;;;;;;;;;;5056644;28;20443;-82
2022/05/31 14:28:37;;;;;;;58.20;2.40;;;;;;;;;;5056724;28;20438;-83
2022/05/31 14:31:06;;;;;;;58.20;2.27;;;;;;;;;;5056858;28;20538;-82
2022/05/31 14:33:35;;;;;;;57.67;2.10;;;;;;;;;;5057647;28;20528;-82
2022/05/31 14:36:03;;;;;;;57.77;2.10;;;;;;;;;;5057057;28;20499;-84
2022/05/31 14:38:32;;;;;;;58.10;2.40;;;;;;;;;;5057348;28;20453;-82
2022/05/31 14:41:02;;;;;;;57.97;2.10;;;;;;;;;;5057664;28;20487;-81
2022/05/31 14:43:32;;;;;;;57.90;2.30;;;;;;;;;;5058276;28;20499;-83
2022/05/31 14:46:00;;;;;;;58.17;2.30;;;;;;;;;;5057951;28;20436;-81
2022/05/31 14:48:48;;;;;;;58.00;2.20;;;;;;;;;;5057300;28;20447;-82
2022/05/31 14:51:17;;;;;;;57.87;1.97;;;;;;;;;;5056988;28;20551;-82
2022/05/31 14:53:51;;;;;;;57.70;2.10;;;;;;;;;;5058234;28;20478;-81
2022/05/31 14:56:23;;;;;;;60.00;1.90;;;;;;;;;;5059296;28;20439;-82
2022/05/31 14:58:54;;;;;;;58.10;2.30;;;;;;;;;;5058845;28;20834;-82
2022/05/31 15:01:26;;;;;;;58.20;2.20;;;;;;;;;;5059798;28;20463;-81
2022/05/31 15:03:58;;;;;;;58.10;2.40;;;;;;;;;;5059607;28;20478;-82
2022/05/31 15:06:28;;;;;;;58.90;2.17;;;;;;;;;;5060305;28;20437;-82
2022/05/31 15:09:04;;;;;;;58.17;2.33;;;;;;;;;;5060505;28;20447;-82
2022/05/31 15:19:48;;;;;;;58.43;2.30;;;;;;;;;;5060144;28;20460;-80
2022/05/31 15:22:17;;;;;;;58.67;2.37;;;;;;;;;;5060213;28;20437;-81
2022/05/31 15:24:46;;;;;;;58.73;2.60;;;;;;;;;;5060850;28;20500;-80
2022/05/31 15:27:16;;;;;;;58.80;2.77;;;;;;;;;;5060030;28;20460;-80
2022/05/31 15:29:44;;;;;;;59.80;2.83;;;;;;;;;;5060470;28;20460;-80
2022/05/31 15:32:11;;;;;;;58.83;2.53;;;;;;;;;;5060276;28;20460;-80